Terminal Aerodrome Forecast
Issued by NWS Omaha/Valley, NE

Home | Current Version | Previous Version | Text Only | Print | Product List | Glossary Off
Versions: 1 2 3 4 5 6 7 8 9 10 11 12 13 14 15 16 17 18

000
FTUS43 KOAX 171120
TAFOFK
TAF
KOFK 171120Z 1712/1812 24007KT P6SM SCT040 BKN090
     FM171400 28008KT P6SM SCT200
     FM171800 31011KT P6SM FEW250
     FM172300 31007KT P6SM FEW250
     FM180600 15008KT P6SM SCT250
     FM180900 17014G22KT P6SM SCT200 WS020/19050KT
     FM181100 18016G24KT P6SM SCT200 WS020/20060KT=

USA.gov is the U.S. government's official web portal to all federal, state and local government web resources and services.